Time;durP1;ratioP1;P1;durP2;ratioP2;P2;SDS_P1;SDS_P2;PMS_P1;PMS_P2;Temp;Humidity;BMP_temperature;BMP_pressure;BME280_temperature;BME280_humidity;BME280_pressure;Samples;Min_cycle;Max_cycle;Signal;HPM_P1;HPM_P2
2022/07/02 00:00:02;;;;;;;13.30;2.93;;;;;;;;;;5247590;28;20082;-73
2022/07/02 00:02:35;;;;;;;5.10;2.30;;;;;;;;;;5249712;28;20043;-73
2022/07/02 00:05:07;;;;;;;5.20;2.20;;;;;;;;;;5247392;28;20021;-72
2022/07/02 00:07:38;;;;;;;7.40;3.00;;;;;;;;;;5241098;28;20488;-73
2022/07/02 00:10:10;;;;;;;9.47;2.77;;;;;;;;;;5227302;28;20061;-73
2022/07/02 00:12:41;;;;;;;8.43;2.60;;;;;;;;;;5238924;28;20095;-72
2022/07/02 00:15:12;;;;;;;7.87;2.53;;;;;;;;;;5247435;28;20021;-73
2022/07/02 00:17:44;;;;;;;14.83;3.70;;;;;;;;;;5247774;28;20077;-72
2022/07/02 00:20:15;;;;;;;7.63;2.57;;;;;;;;;;5249246;28;20578;-73
2022/07/02 00:22:47;;;;;;;6.83;1.87;;;;;;;;;;5247981;28;20479;-72
2022/07/02 00:25:19;;;;;;;10.03;2.50;;;;;;;;;;5226398;28;20083;-72
2022/07/02 00:27:50;;;;;;;9.80;2.33;;;;;;;;;;5248302;28;20033;-73
2022/07/02 00:30:21;;;;;;;5.80;1.90;;;;;;;;;;5250540;28;20028;-73
2022/07/02 00:32:52;;;;;;;5.10;1.93;;;;;;;;;;5253459;28;20020;-73
2022/07/02 00:35:24;;;;;;;8.07;2.30;;;;;;;;;;5244944;28;20105;-73
2022/07/02 00:37:56;;;;;;;8.30;2.50;;;;;;;;;;5231539;28;20032;-72
2022/07/02 00:40:28;;;;;;;8.40;2.23;;;;;;;;;;5240294;28;20064;-73
2022/07/02 00:43:00;;;;;;;10.73;2.50;;;;;;;;;;5233669;28;20169;-72
2022/07/02 00:45:32;;;;;;;4.37;1.93;;;;;;;;;;5231180;28;20562;-72
2022/07/02 00:48:04;;;;;;;5.37;2.43;;;;;;;;;;5232223;28;20051;-73
2022/07/02 00:50:35;;;;;;;6.97;2.00;;;;;;;;;;5231566;28;20017;-73
2022/07/02 00:53:06;;;;;;;4.63;2.00;;;;;;;;;;5232443;28;20033;-73
2022/07/02 00:55:37;;;;;;;5.57;2.13;;;;;;;;;;5249613;28;20034;-73
2022/07/02 00:58:08;;;;;;;5.33;2.23;;;;;;;;;;5249865;28;20028;-73
2022/07/02 01:00:39;;;;;;;2.97;1.77;;;;;;;;;;5229300;28;20029;-73
2022/07/02 01:03:12;;;;;;;6.10;2.30;;;;;;;;;;5251937;22;20134;-73
2022/07/02 01:05:43;;;;;;;5.47;1.70;;;;;;;;;;5252105;28;20056;-73
2022/07/02 01:11:06;;;;;;;5.00;2.10;;;;;;;;;;5251524;28;20523;-73
2022/07/02 01:13:38;;;;;;;3.90;1.77;;;;;;;;;;5252398;28;20021;-73
2022/07/02 01:16:09;;;;;;;7.97;2.90;;;;;;;;;;5232740;28;20545;-73
2022/07/02 01:18:41;;;;;;;7.23;2.50;;;;;;;;;;5252253;28;20024;-73
2022/07/02 01:21:12;;;;;;;4.67;1.40;;;;;;;;;;5252193;28;20082;-72
2022/07/02 01:23:43;;;;;;;8.10;2.17;;;;;;;;;;5243156;28;20396;-73
2022/07/02 01:26:14;;;;;;;6.73;1.87;;;;;;;;;;5233068;28;20112;-73
2022/07/02 01:28:45;;;;;;;6.65;1.85;;;;;;;;;;5252537;28;20082;-73
2022/07/02 01:31:18;;;;;;;5.82;2.08;;;;;;;;;;5232267;28;20027;-73
2022/07/02 01:33:49;;;;;;;5.90;2.07;;;;;;;;;;5251739;28;20025;-73
2022/07/02 01:36:20;;;;;;;6.00;2.10;;;;;;;;;;5251018;28;20494;-73
2022/07/02 01:38:51;;;;;;;6.47;2.30;;;;;;;;;;5244242;28;20022;-73
2022/07/02 01:41:40;;;;;;;3.47;1.60;;;;;;;;;;5250565;28;20091;-73
2022/07/02 01:44:11;;;;;;;6.17;2.03;;;;;;;;;;5241618;28;20032;-73
2022/07/02 01:46:43;;;;;;;3.63;2.00;;;;;;;;;;5248894;28;20021;-73
2022/07/02 01:49:15;;;;;;;5.57;2.00;;;;;;;;;;5251414;28;20044;-73
2022/07/02 01:51:46;;;;;;;4.80;2.07;;;;;;;;;;5251654;28;20025;-72
2022/07/02 01:54:17;;;;;;;7.23;2.07;;;;;;;;;;5244549;28;20533;-73
2022/07/02 01:56:48;;;;;;;5.20;1.90;;;;;;;;;;5232350;28;20037;-73
2022/07/02 01:59:20;;;;;;;7.00;2.50;;;;;;;;;;5247757;28;20195;-72
2022/07/02 02:01:51;;;;;;;6.47;1.87;;;;;;;;;;5249130;28;20487;-72
2022/07/02 02:04:22;;;;;;;3.83;1.70;;;;;;;;;;5238030;28;20450;-73
2022/07/02 02:06:53;;;;;;;6.47;2.00;;;;;;;;;;5230491;28;20017;-72
2022/07/02 02:09:24;;;;;;;4.67;1.80;;;;;;;;;;5227798;28;20029;-72
2022/07/02 02:11:55;;;;;;;4.60;2.07;;;;;;;;;;5249029;28;20127;-73
2022/07/02 02:14:27;;;;;;;8.07;2.00;;;;;;;;;;5250004;28;20162;-72
2022/07/02 02:16:58;;;;;;;4.07;2.10;;;;;;;;;;5250063;28;20036;-72
2022/07/02 02:19:29;;;;;;;6.33;2.37;;;;;;;;;;5249916;28;20056;-73
2022/07/02 02:22:01;;;;;;;5.63;2.20;;;;;;;;;;5249815;28;20045;-73
2022/07/02 02:24:32;;;;;;;5.33;1.83;;;;;;;;;;5238666;28;20115;-73
2022/07/02 02:27:03;;;;;;;6.43;2.40;;;;;;;;;;5244237;28;20041;-73
2022/07/02 02:29:34;;;;;;;4.30;2.03;;;;;;;;;;5246271;28;20021;-73
2022/07/02 02:32:06;;;;;;;8.77;4.03;;;;;;;;;;5228167;28;20031;-73
2022/07/02 02:34:37;;;;;;;5.93;2.40;;;;;;;;;;5224390;28;20021;-73
2022/07/02 02:37:08;;;;;;;8.73;2.97;;;;;;;;;;5248392;28;20108;-73
2022/07/02 02:39:41;;;;;;;12.07;2.55;;;;;;;;;;5249509;28;20067;-73
2022/07/02 02:42:12;;;;;;;8.40;2.67;;;;;;;;;;5248761;28;20037;-73
2022/07/02 02:44:43;;;;;;;14.07;3.93;;;;;;;;;;5248306;28;20032;-73
2022/07/02 02:47:14;;;;;;;10.63;2.97;;;;;;;;;;5247847;28;20064;-73
2022/07/02 02:49:45;;;;;;;8.97;2.87;;;;;;;;;;5250333;28;21017;-73
2022/07/02 02:52:17;;;;;;;9.00;3.33;;;;;;;;;;5247587;28;20463;-72
2022/07/02 02:54:48;;;;;;;9.00;3.10;;;;;;;;;;5248725;28;20024;-72
2022/07/02 02:57:19;;;;;;;6.77;3.20;;;;;;;;;;5232022;28;20120;-72
2022/07/02 02:59:50;;;;;;;4.88;2.88;;;;;;;;;;5246530;28;20025;-72
2022/07/02 03:02:21;;;;;;;9.13;2.60;;;;;;;;;;5248127;28;20143;-72
2022/07/02 03:04:52;;;;;;;6.97;3.03;;;;;;;;;;5248347;28;20079;-73
2022/07/02 03:07:24;;;;;;;13.93;5.13;;;;;;;;;;5249741;28;20140;-73
2022/07/02 03:09:55;;;;;;;7.40;2.90;;;;;;;;;;5248711;28;20105;-72
2022/07/02 03:12:26;;;;;;;6.53;3.03;;;;;;;;;;5249052;28;20021;-72
2022/07/02 03:14:57;;;;;;;10.30;3.20;;;;;;;;;;5247759;28;20020;-73
2022/07/02 03:17:29;;;;;;;8.77;3.10;;;;;;;;;;5228731;28;20068;-72
2022/07/02 03:20:00;;;;;;;5.00;2.10;;;;;;;;;;5247310;28;20676;-72
2022/07/02 03:22:31;;;;;;;6.57;2.40;;;;;;;;;;5249487;28;20497;-73
2022/07/02 03:25:02;;;;;;;7.93;2.70;;;;;;;;;;5248230;28;20098;-72
2022/07/02 03:27:34;;;;;;;7.77;2.70;;;;;;;;;;5249051;28;20390;-72
2022/07/02 03:30:06;;;;;;;14.97;3.90;;;;;;;;;;5229311;28;20021;-72
2022/07/02 03:32:37;;;;;;;8.33;2.77;;;;;;;;;;5247345;28;20051;-72
2022/07/02 03:35:08;;;;;;;7.00;2.43;;;;;;;;;;5247693;28;20023;-72
2022/07/02 03:37:40;;;;;;;5.40;2.53;;;;;;;;;;5249795;28;20021;-73
2022/07/02 03:40:11;;;;;;;6.90;2.87;;;;;;;;;;5248966;28;20108;-73
2022/07/02 03:42:42;;;;;;;5.20;2.60;;;;;;;;;;5248886;28;20028;-72
2022/07/02 03:45:13;;;;;;;5.87;2.47;;;;;;;;;;5246367;28;20626;-72
2022/07/02 03:47:44;;;;;;;10.85;2.78;;;;;;;;;;5248476;28;20479;-72
2022/07/02 03:50:16;;;;;;;5.17;2.30;;;;;;;;;;5248276;28;20139;-73
2022/07/02 03:52:47;;;;;;;7.10;2.50;;;;;;;;;;5231229;28;20029;-73
2022/07/02 03:55:18;;;;;;;8.27;2.70;;;;;;;;;;5246994;28;20025;-72
2022/07/02 03:57:49;;;;;;;7.87;2.60;;;;;;;;;;5248999;28;20029;-72
2022/07/02 04:00:21;;;;;;;5.07;2.37;;;;;;;;;;5228170;28;20455;-72
2022/07/02 04:02:52;;;;;;;4.83;2.43;;;;;;;;;;5247766;28;20074;-72
2022/07/02 04:05:23;;;;;;;5.77;2.20;;;;;;;;;;5249766;28;20736;-72
2022/07/02 04:07:54;;;;;;;6.93;2.87;;;;;;;;;;5251748;28;20017;-72
2022/07/02 04:10:25;;;;;;;6.27;2.60;;;;;;;;;;5252932;28;20379;-72
2022/07/02 04:12:57;;;;;;;9.83;3.03;;;;;;;;;;5234635;28;20040;-72
2022/07/02 04:15:28;;;;;;;5.97;2.93;;;;;;;;;;5247848;28;20071;-72
2022/07/02 04:17:59;;;;;;;7.27;3.27;;;;;;;;;;5240609;28;20013;-72
2022/07/02 04:20:32;;;;;;;9.93;4.07;;;;;;;;;;5252939;28;20499;-72
2022/07/02 04:23:03;;;;;;;7.67;3.40;;;;;;;;;;5252847;28;20033;-73
2022/07/02 04:25:34;;;;;;;9.83;3.80;;;;;;;;;;5234685;28;20055;-72
2022/07/02 04:28:07;;;;;;;9.87;3.83;;;;;;;;;;5253405;28;20675;-73
2022/07/02 04:30:38;;;;;;;8.47;3.53;;;;;;;;;;5230930;28;20074;-72
2022/07/02 04:33:09;;;;;;;7.93;4.57;;;;;;;;;;5252246;28;20029;-72
2022/07/02 04:35:40;;;;;;;11.90;4.47;;;;;;;;;;5249970;28;20029;-72
2022/07/02 04:38:12;;;;;;;13.17;5.50;;;;;;;;;;5252277;28;20414;-72
2022/07/02 04:40:43;;;;;;;7.43;3.83;;;;;;;;;;5234107;28;20068;-72
2022/07/02 04:43:14;;;;;;;9.97;3.87;;;;;;;;;;5252123;28;20404;-72
2022/07/02 04:45:45;;;;;;;8.73;4.33;;;;;;;;;;5233216;28;20031;-72
2022/07/02 04:48:16;;;;;;;8.50;4.20;;;;;;;;;;5252061;28;20544;-73
2022/07/02 04:50:47;;;;;;;7.70;3.58;;;;;;;;;;5252134;28;20390;-72
2022/07/02 04:53:19;;;;;;;9.73;4.47;;;;;;;;;;5252766;28;20033;-72
2022/07/02 04:55:50;;;;;;;6.23;3.07;;;;;;;;;;5251297;28;20025;-72
2022/07/02 04:58:21;;;;;;;8.93;3.43;;;;;;;;;;5234803;28;20043;-72
2022/07/02 05:00:52;;;;;;;8.73;2.40;;;;;;;;;;5249898;28;20032;-72
2022/07/02 05:03:23;;;;;;;8.07;2.93;;;;;;;;;;5233338;28;20084;-72
2022/07/02 05:05:55;;;;;;;5.13;2.27;;;;;;;;;;5241901;28;20013;-73
2022/07/02 05:08:29;;;;;;;8.37;3.77;;;;;;;;;;5233098;28;20139;-72
2022/07/02 05:11:00;;;;;;;6.72;3.67;;;;;;;;;;5235366;28;20025;-72
2022/07/02 05:13:31;;;;;;;9.97;2.90;;;;;;;;;;5251637;28;20078;-72
2022/07/02 05:16:02;;;;;;;7.63;2.80;;;;;;;;;;5248400;28;20082;-73
2022/07/02 05:18:34;;;;;;;7.43;2.87;;;;;;;;;;5248305;28;20475;-73
2022/07/02 05:21:05;;;;;;;6.13;2.20;;;;;;;;;;5249717;28;20081;-73
2022/07/02 05:23:36;;;;;;;7.80;2.40;;;;;;;;;;5251560;28;20025;-73
2022/07/02 05:26:07;;;;;;;11.27;3.53;;;;;;;;;;5249097;28;20107;-73
2022/07/02 05:28:39;;;;;;;8.13;2.90;;;;;;;;;;5251943;28;20013;-73
2022/07/02 05:31:10;;;;;;;9.80;3.00;;;;;;;;;;5249124;28;20056;-73
2022/07/02 05:33:41;;;;;;;9.43;3.57;;;;;;;;;;5251884;28;20020;-73
2022/07/02 05:36:12;;;;;;;5.80;3.60;;;;;;;;;;5230207;28;20027;-72
2022/07/02 05:38:43;;;;;;;6.03;2.70;;;;;;;;;;5251628;28;20028;-72
2022/07/02 05:41:15;;;;;;;8.03;2.30;;;;;;;;;;5232228;28;20032;-72
2022/07/02 05:43:46;;;;;;;5.63;2.47;;;;;;;;;;5232267;28;20021;-72
2022/07/02 05:46:17;;;;;;;6.67;2.30;;;;;;;;;;5231632;28;20020;-72
2022/07/02 05:48:48;;;;;;;4.43;1.90;;;;;;;;;;5232920;28;20040;-72
2022/07/02 05:51:19;;;;;;;5.50;1.93;;;;;;;;;;5225484;28;20025;-72
2022/07/02 05:53:51;;;;;;;4.57;1.92;;;;;;;;;;5232044;28;20040;-73
2022/07/02 05:56:22;;;;;;;6.70;2.00;;;;;;;;;;5250213;28;20110;-72
2022/07/02 05:58:53;;;;;;;10.67;2.10;;;;;;;;;;5230771;28;20063;-72
2022/07/02 06:01:24;;;;;;;8.80;1.80;;;;;;;;;;5250683;28;20484;-72
2022/07/02 06:03:55;;;;;;;6.27;1.70;;;;;;;;;;5242681;28;20056;-72
2022/07/02 06:09:17;;;;;;;5.07;1.80;;;;;;;;;;5245237;28;20037;-72
2022/07/02 06:11:48;;;;;;;8.37;1.40;;;;;;;;;;5247266;28;20388;-72
2022/07/02 06:14:19;;;;;;;6.10;1.87;;;;;;;;;;5248325;28;20063;-72
2022/07/02 06:16:50;;;;;;;4.07;1.80;;;;;;;;;;5248028;28;20052;-72
2022/07/02 06:19:22;;;;;;;6.40;1.37;;;;;;;;;;5246455;28;20014;-72
2022/07/02 06:21:53;;;;;;;4.67;1.40;;;;;;;;;;5230011;28;20112;-72
2022/07/02 06:24:24;;;;;;;4.57;1.37;;;;;;;;;;5248806;28;20108;-72
2022/07/02 06:26:55;;;;;;;4.63;1.20;;;;;;;;;;5247091;28;20025;-72
2022/07/02 06:29:26;;;;;;;6.23;1.70;;;;;;;;;;5228403;28;20975;-73
2022/07/02 06:31:58;;;;;;;4.80;1.53;;;;;;;;;;5229807;28;20028;-72
2022/07/02 06:34:29;;;;;;;4.40;1.23;;;;;;;;;;5248500;28;20041;-73
2022/07/02 06:37:00;;;;;;;4.82;1.23;;;;;;;;;;5248614;28;20037;-72
2022/07/02 06:39:31;;;;;;;3.15;1.42;;;;;;;;;;5249273;28;20025;-73
2022/07/02 06:42:22;;;;;;;3.40;1.20;;;;;;;;;;5229097;28;20033;-73
2022/07/02 06:44:54;;;;;;;3.03;1.27;;;;;;;;;;5245116;28;20043;-72
2022/07/02 06:47:26;;;;;;;5.27;1.30;;;;;;;;;;5232352;28;20017;-73
2022/07/02 06:49:58;;;;;;;3.13;1.07;;;;;;;;;;5248300;28;20443;-72
2022/07/02 06:52:29;;;;;;;4.57;1.07;;;;;;;;;;5248681;28;20024;-72
2022/07/02 06:55:00;;;;;;;3.50;0.80;;;;;;;;;;5243884;28;20028;-72
2022/07/02 06:57:32;;;;;;;3.50;1.43;;;;;;;;;;5228111;28;20063;-72
2022/07/02 07:00:03;;;;;;;6.87;0.90;;;;;;;;;;5245412;28;20055;-72
2022/07/02 07:02:35;;;;;;;4.07;1.03;;;;;;;;;;5249387;28;20550;-73
2022/07/02 07:05:06;;;;;;;2.97;1.20;;;;;;;;;;5230422;28;20560;-73
2022/07/02 07:07:38;;;;;;;4.50;1.00;;;;;;;;;;5229974;28;20123;-73
2022/07/02 07:10:09;;;;;;;2.33;0.60;;;;;;;;;;5247090;28;20070;-72
2022/07/02 07:12:40;;;;;;;1.17;0.60;;;;;;;;;;5230792;28;20017;-74
2022/07/02 07:15:11;;;;;;;2.73;0.77;;;;;;;;;;5248163;28;20618;-74
2022/07/02 07:17:43;;;;;;;3.83;0.83;;;;;;;;;;5223676;28;20018;-74
2022/07/02 07:20:19;;;;;;;3.80;0.60;;;;;;;;;;5242840;28;20025;-73
2022/07/02 07:22:50;;;;;;;2.93;0.80;;;;;;;;;;5249394;28;20017;-72
2022/07/02 07:25:22;;;;;;;2.63;0.77;;;;;;;;;;5249285;28;20655;-74
2022/07/02 07:27:53;;;;;;;2.90;0.90;;;;;;;;;;5246282;28;20064;-71
2022/07/02 07:30:24;;;;;;;7.40;1.80;;;;;;;;;;5228969;28;20029;-71
2022/07/02 07:32:56;;;;;;;3.33;0.82;;;;;;;;;;5228931;28;20162;-70
2022/07/02 07:35:28;;;;;;;3.53;1.00;;;;;;;;;;5229296;28;20720;-71
2022/07/02 07:38:00;;;;;;;3.75;1.00;;;;;;;;;;5246778;28;20559;-71
2022/07/02 07:40:31;;;;;;;3.83;1.58;;;;;;;;;;5228051;28;20529;-71
2022/07/02 07:43:03;;;;;;;4.08;0.80;;;;;;;;;;5248110;28;20040;-71
2022/07/02 07:45:34;;;;;;;6.07;0.98;;;;;;;;;;5247898;28;20028;-71
2022/07/02 07:48:05;;;;;;;3.58;1.05;;;;;;;;;;5246980;28;20024;-72
2022/07/02 07:50:36;;;;;;;4.03;0.90;;;;;;;;;;5248296;28;20041;-74
2022/07/02 07:53:08;;;;;;;4.53;1.00;;;;;;;;;;5246991;28;20019;-75
2022/07/02 07:55:39;;;;;;;5.07;1.67;;;;;;;;;;5247941;28;20367;-74
2022/07/02 07:58:10;;;;;;;6.75;1.30;;;;;;;;;;5247798;28;20057;-74
2022/07/02 08:00:41;;;;;;;5.78;1.20;;;;;;;;;;5227201;28;20029;-74
2022/07/02 08:03:17;;;;;;;4.80;1.10;;;;;;;;;;5226643;28;20390;-75
2022/07/02 08:05:53;;;;;;;3.53;0.80;;;;;;;;;;5228256;28;20026;-74
2022/07/02 08:08:25;;;;;;;3.53;0.88;;;;;;;;;;5212006;28;20047;-73
2022/07/02 08:10:56;;;;;;;3.90;0.98;;;;;;;;;;5227709;28;20025;-74
2022/07/02 08:13:27;;;;;;;5.40;1.30;;;;;;;;;;5227146;28;20660;-73
2022/07/02 08:16:00;;;;;;;4.78;0.80;;;;;;;;;;5226725;28;20025;-73
2022/07/02 08:18:32;;;;;;;2.63;0.93;;;;;;;;;;5228099;28;20025;-74
2022/07/02 08:21:03;;;;;;;7.45;1.13;;;;;;;;;;5226590;28;20044;-74
2022/07/02 08:23:35;;;;;;;4.05;0.88;;;;;;;;;;5227069;28;20021;-74
2022/07/02 08:26:06;;;;;;;5.32;1.00;;;;;;;;;;5221549;28;20014;-74
2022/07/02 08:28:37;;;;;;;4.27;1.10;;;;;;;;;;5220766;28;20060;-74
2022/07/02 08:31:08;;;;;;;4.53;1.40;;;;;;;;;;5225817;28;20299;-74
2022/07/02 08:33:40;;;;;;;3.90;1.40;;;;;;;;;;5227627;28;20651;-74
2022/07/02 08:36:11;;;;;;;2.88;0.82;;;;;;;;;;5225942;28;20021;-74
2022/07/02 08:38:42;;;;;;;3.47;1.00;;;;;;;;;;5226151;28;20020;-74
2022/07/02 08:41:15;;;;;;;3.17;1.15;;;;;;;;;;5217527;28;20622;-74
2022/07/02 08:43:48;;;;;;;4.03;1.00;;;;;;;;;;5210530;28;20025;-75
2022/07/02 08:46:19;;;;;;;6.53;1.20;;;;;;;;;;5215405;28;20113;-75
2022/07/02 08:48:51;;;;;;;4.25;0.70;;;;;;;;;;5221075;28;20097;-75
2022/07/02 08:51:23;;;;;;;5.72;1.10;;;;;;;;;;5224876;28;20021;-74
2022/07/02 08:53:54;;;;;;;6.22;1.13;;;;;;;;;;5214625;28;20072;-74
2022/07/02 08:56:26;;;;;;;4.73;1.10;;;;;;;;;;5227890;28;20018;-75
2022/07/02 08:58:58;;;;;;;4.22;1.65;;;;;;;;;;5215699;28;20426;-75
2022/07/02 09:01:31;;;;;;;4.25;1.30;;;;;;;;;;5221117;28;20037;-74
2022/07/02 09:04:02;;;;;;;5.20;0.90;;;;;;;;;;5223779;28;20088;-74
2022/07/02 09:06:36;;;;;;;3.05;1.17;;;;;;;;;;5219386;28;20547;-75
2022/07/02 09:09:08;;;;;;;4.57;1.10;;;;;;;;;;5217241;28;20033;-75
2022/07/02 09:11:39;;;;;;;3.33;0.85;;;;;;;;;;5221688;28;20476;-74
2022/07/02 09:14:12;;;;;;;4.03;1.17;;;;;;;;;;5226612;28;20033;-74
2022/07/02 09:16:43;;;;;;;4.53;1.00;;;;;;;;;;5212402;28;20809;-74
2022/07/02 09:19:14;;;;;;;2.83;0.95;;;;;;;;;;5225689;28;20033;-74
2022/07/02 09:21:50;;;;;;;3.97;1.10;;;;;;;;;;5221825;28;20068;-75
2022/07/02 09:24:37;;;;;;;3.90;1.48;;;;;;;;;;5221309;28;20018;-76
2022/07/02 09:27:15;;;;;;;5.47;1.08;;;;;;;;;;5213890;28;20022;-76
2022/07/02 09:29:48;;;;;;;4.50;1.15;;;;;;;;;;5213825;28;20037;-75
2022/07/02 09:32:20;;;;;;;6.27;1.77;;;;;;;;;;5222109;28;20025;-75
2022/07/02 09:34:52;;;;;;;7.80;0.90;;;;;;;;;;5227394;28;20027;-74
2022/07/02 09:37:24;;;;;;;4.47;1.20;;;;;;;;;;5226572;28;20025;-74
2022/07/02 09:40:00;;;;;;;9.18;2.13;;;;;;;;;;5225886;28;20092;-74
2022/07/02 09:42:33;;;;;;;3.28;0.82;;;;;;;;;;5220510;28;20060;-74
2022/07/02 09:45:05;;;;;;;3.93;1.20;;;;;;;;;;5219564;28;20075;-74
2022/07/02 09:47:48;;;;;;;3.03;0.70;;;;;;;;;;5227385;28;20041;-74
2022/07/02 09:50:21;;;;;;;4.43;1.17;;;;;;;;;;5218301;28;20104;-81
2022/07/02 09:52:53;;;;;;;4.32;1.05;;;;;;;;;;5236785;28;20598;-77
2022/07/02 09:55:26;;;;;;;5.53;1.58;;;;;;;;;;5225726;28;20018;-77
2022/07/02 09:58:01;;;;;;;4.95;1.08;;;;;;;;;;5220636;28;20029;-79
2022/07/02 10:00:33;;;;;;;5.00;1.42;;;;;;;;;;5219127;28;20033;-77
2022/07/02 10:03:04;;;;;;;3.17;1.00;;;;;;;;;;5227090;28;20518;-74
2022/07/02 10:05:36;;;;;;;3.70;0.80;;;;;;;;;;5223184;28;20044;-74
2022/07/02 10:08:07;;;;;;;3.17;0.88;;;;;;;;;;5238051;28;20175;-74
2022/07/02 10:10:38;;;;;;;3.15;0.93;;;;;;;;;;5242544;28;20059;-74
2022/07/02 10:13:11;;;;;;;5.20;1.10;;;;;;;;;;5236816;28;20024;-74
2022/07/02 10:15:48;;;;;;;5.03;1.20;;;;;;;;;;5243559;28;20510;-74
2022/07/02 10:18:19;;;;;;;4.43;1.85;;;;;;;;;;5235282;28;20033;-75
2022/07/02 10:20:51;;;;;;;4.10;1.10;;;;;;;;;;5240989;28;20044;-78
2022/07/02 10:23:23;;;;;;;3.38;1.20;;;;;;;;;;5219202;28;20541;-79
2022/07/02 10:25:55;;;;;;;4.03;1.13;;;;;;;;;;5240113;28;20096;-81
2022/07/02 10:28:27;;;;;;;2.70;1.23;;;;;;;;;;5249023;28;20082;-79
2022/07/02 10:30:59;;;;;;;5.28;1.10;;;;;;;;;;5248093;28;20029;-78
2022/07/02 10:33:33;;;;;;;4.23;1.03;;;;;;;;;;5247959;28;20025;-75
2022/07/02 10:36:06;;;;;;;2.22;0.80;;;;;;;;;;5248476;28;20074;-78
2022/07/02 10:38:38;;;;;;;4.03;1.38;;;;;;;;;;5250842;28;20475;-77
2022/07/02 10:41:10;;;;;;;7.05;0.88;;;;;;;;;;5249464;28;20033;-79
2022/07/02 10:43:41;;;;;;;3.63;1.00;;;;;;;;;;5250091;28;20021;-77
2022/07/02 10:46:16;;;;;;;4.40;0.67;;;;;;;;;;5248969;28;20031;-78
2022/07/02 10:48:48;;;;;;;2.22;0.60;;;;;;;;;;5231335;28;20329;-77
2022/07/02 10:51:32;;;;;;;4.28;0.80;;;;;;;;;;5249757;28;20025;-78
2022/07/02 10:54:04;;;;;;;3.10;0.73;;;;;;;;;;5241956;28;20021;-77
2022/07/02 10:56:46;;;;;;;3.08;0.90;;;;;;;;;;5245534;28;20013;-77
2022/07/02 10:59:24;;;;;;;2.42;0.80;;;;;;;;;;5231427;28;20368;-77
2022/07/02 11:02:03;;;;;;;3.03;0.75;;;;;;;;;;5229528;28;20032;-75
2022/07/02 11:04:34;;;;;;;3.75;0.57;;;;;;;;;;5248207;28;20451;-73
2022/07/02 11:07:10;;;;;;;2.58;0.80;;;;;;;;;;5229116;28;20021;-74
2022/07/02 11:09:44;;;;;;;2.15;0.60;;;;;;;;;;5248352;28;20017;-71
2022/07/02 11:12:18;;;;;;;2.08;0.70;;;;;;;;;;5228896;28;20021;-73
2022/07/02 11:14:53;;;;;;;3.17;1.02;;;;;;;;;;5247683;28;20021;-73
2022/07/02 11:17:26;;;;;;;2.38;0.70;;;;;;;;;;5242388;28;20032;-74
2022/07/02 11:19:58;;;;;;;4.15;0.70;;;;;;;;;;5248350;28;20404;-73
2022/07/02 11:22:32;;;;;;;2.13;0.60;;;;;;;;;;5249143;28;20040;-73
2022/07/02 11:25:04;;;;;;;1.10;0.50;;;;;;;;;;5247027;28;20599;-73
2022/07/02 11:27:35;;;;;;;4.78;0.60;;;;;;;;;;5248528;28;20024;-73
2022/07/02 11:30:06;;;;;;;2.67;0.93;;;;;;;;;;5247057;28;20449;-77
2022/07/02 11:32:38;;;;;;;1.35;0.60;;;;;;;;;;5228354;28;20029;-78
2022/07/02 11:35:09;;;;;;;2.35;0.70;;;;;;;;;;5243414;28;20024;-76
2022/07/02 11:37:43;;;;;;;2.40;0.63;;;;;;;;;;5244597;28;20029;-77
2022/07/02 11:40:21;;;;;;;3.17;0.50;;;;;;;;;;5245260;28;20021;-88
2022/07/02 11:42:52;;;;;;;3.15;0.77;;;;;;;;;;5229779;28;20036;-76
2022/07/02 11:45:23;;;;;;;1.90;0.57;;;;;;;;;;5230727;28;20025;-77
2022/07/02 11:47:54;;;;;;;3.38;0.60;;;;;;;;;;5225507;28;20037;-78
2022/07/02 11:50:27;;;;;;;1.40;0.60;;;;;;;;;;5228311;28;20696;-78
2022/07/02 11:52:59;;;;;;;2.10;0.52;;;;;;;;;;5216937;28;20291;-78
2022/07/02 11:55:30;;;;;;;2.30;0.60;;;;;;;;;;5245899;28;20025;-77
2022/07/02 11:58:01;;;;;;;7.18;1.10;;;;;;;;;;5221009;28;20029;-76
2022/07/02 12:00:32;;;;;;;2.75;0.95;;;;;;;;;;5242728;28;20017;-76
2022/07/02 12:03:07;;;;;;;3.28;0.65;;;;;;;;;;5246468;28;20049;-76
2022/07/02 12:05:57;;;;;;;4.65;1.00;;;;;;;;;;5246325;28;20120;-76
2022/07/02 12:08:28;;;;;;;2.60;0.65;;;;;;;;;;5229226;28;20025;-75
2022/07/02 12:11:00;;;;;;;3.27;0.57;;;;;;;;;;5224624;28;20028;-68
2022/07/02 12:13:32;;;;;;;3.97;1.15;;;;;;;;;;5215221;28;20720;-68
2022/07/02 12:16:03;;;;;;;2.13;0.82;;;;;;;;;;5225569;28;20021;-67
2022/07/02 12:18:34;;;;;;;3.15;0.60;;;;;;;;;;5222340;28;20478;-71
2022/07/02 12:21:10;;;;;;;3.35;1.15;;;;;;;;;;5217770;28;20041;-71
2022/07/02 12:23:48;;;;;;;4.40;0.60;;;;;;;;;;5216639;28;20040;-71
2022/07/02 12:26:25;;;;;;;6.15;0.90;;;;;;;;;;5221081;28;20052;-71
2022/07/02 12:31:53;;;;;;;4.78;0.60;;;;;;;;;;5222422;28;20132;-71
2022/07/02 12:34:24;;;;;;;2.15;0.90;;;;;;;;;;5204215;28;20024;-73
2022/07/02 12:36:56;;;;;;;5.13;1.27;;;;;;;;;;5220195;28;20052;-72
2022/07/02 12:39:38;;;;;;;4.70;1.17;;;;;;;;;;5221523;28;20050;-72
2022/07/02 12:42:15;;;;;;;2.63;0.70;;;;;;;;;;5203132;28;20030;-72
2022/07/02 12:45:00;;;;;;;2.42;0.75;;;;;;;;;;5225477;28;20112;-72
2022/07/02 12:47:33;;;;;;;3.80;1.00;;;;;;;;;;5235519;28;20036;-72
2022/07/02 12:50:14;;;;;;;1.70;0.80;;;;;;;;;;5242872;28;20459;-72
2022/07/02 12:52:55;;;;;;;2.83;0.73;;;;;;;;;;5224363;28;20048;-72
2022/07/02 12:55:34;;;;;;;4.68;0.70;;;;;;;;;;5229349;28;20028;-72
2022/07/02 12:58:06;;;;;;;3.75;0.88;;;;;;;;;;5235203;28;20026;-69
2022/07/02 13:00:39;;;;;;;3.15;1.10;;;;;;;;;;5221895;28;20043;-69
2022/07/02 13:03:14;;;;;;;1.95;0.70;;;;;;;;;;5220502;28;20540;-76
2022/07/02 13:05:46;;;;;;;5.38;0.95;;;;;;;;;;5217352;28;20311;-75
2022/07/02 13:08:20;;;;;;;2.00;0.80;;;;;;;;;;5210246;28;20416;-66
2022/07/02 13:10:52;;;;;;;4.72;0.80;;;;;;;;;;5221428;28;20017;-73
2022/07/02 13:13:24;;;;;;;1.35;0.50;;;;;;;;;;5211175;28;20422;-73
2022/07/02 13:15:55;;;;;;;1.67;0.60;;;;;;;;;;5212611;28;20099;-74
2022/07/02 13:18:26;;;;;;;2.75;0.88;;;;;;;;;;5222280;28;20025;-68
2022/07/02 13:20:57;;;;;;;2.58;0.80;;;;;;;;;;5222020;28;20041;-66
2022/07/02 13:23:29;;;;;;;1.75;0.70;;;;;;;;;;5223487;28;20029;-74
2022/07/02 13:26:00;;;;;;;2.08;0.80;;;;;;;;;;5221341;28;20041;-78
2022/07/02 13:28:31;;;;;;;4.10;0.98;;;;;;;;;;5229202;28;20045;-71
2022/07/02 13:31:02;;;;;;;3.13;0.82;;;;;;;;;;5224580;28;20199;-67
2022/07/02 13:33:33;;;;;;;5.78;0.75;;;;;;;;;;5221108;28;20024;-68
2022/07/02 13:36:04;;;;;;;4.82;1.27;;;;;;;;;;5220181;28;20431;-69
2022/07/02 13:38:36;;;;;;;4.32;0.85;;;;;;;;;;5222578;28;20025;-70
2022/07/02 13:41:07;;;;;;;1.42;0.60;;;;;;;;;;5220596;28;20033;-72
2022/07/02 13:43:39;;;;;;;3.65;0.98;;;;;;;;;;5221916;28;20025;-72
2022/07/02 13:46:10;;;;;;;4.32;0.63;;;;;;;;;;5223529;28;20017;-72
2022/07/02 13:48:41;;;;;;;1.77;0.52;;;;;;;;;;5221780;28;20112;-70
2022/07/02 13:51:12;;;;;;;1.52;0.50;;;;;;;;;;5231050;28;20058;-70
2022/07/02 13:53:43;;;;;;;2.95;0.43;;;;;;;;;;5221593;28;20036;-70
2022/07/02 13:56:15;;;;;;;1.73;0.60;;;;;;;;;;5219583;28;20036;-70
2022/07/02 13:58:46;;;;;;;2.15;0.50;;;;;;;;;;5220020;28;20036;-70
2022/07/02 14:01:17;;;;;;;3.33;0.70;;;;;;;;;;5222153;28;20033;-71
2022/07/02 14:03:48;;;;;;;3.53;0.90;;;;;;;;;;5222462;28;20084;-71
2022/07/02 14:06:19;;;;;;;2.20;0.60;;;;;;;;;;5204275;28;20025;-70
2022/07/02 14:08:51;;;;;;;1.95;0.45;;;;;;;;;;5202213;28;20033;-72
2022/07/02 14:11:22;;;;;;;1.50;0.47;;;;;;;;;;5222453;28;20029;-71
2022/07/02 14:13:53;;;;;;;3.80;0.43;;;;;;;;;;5244240;28;20013;-71
2022/07/02 14:16:24;;;;;;;6.13;0.77;;;;;;;;;;5248700;28;20025;-72
2022/07/02 14:18:56;;;;;;;2.40;0.40;;;;;;;;;;5248613;28;20071;-72
2022/07/02 14:21:28;;;;;;;2.70;0.57;;;;;;;;;;5248651;28;20040;-71
2022/07/02 14:23:59;;;;;;;2.10;0.62;;;;;;;;;;5248885;28;20027;-71
2022/07/02 14:26:30;;;;;;;5.40;1.00;;;;;;;;;;5229028;28;20067;-71
2022/07/02 14:29:02;;;;;;;2.42;0.56;;;;;;;;;;5248674;28;20032;-71
2022/07/02 14:31:34;;;;;;;2.72;0.65;;;;;;;;;;5249569;28;20820;-72
2022/07/02 14:34:05;;;;;;;3.08;0.75;;;;;;;;;;5231213;28;20021;-71
2022/07/02 14:36:36;;;;;;;3.17;0.50;;;;;;;;;;5249930;28;20025;-71
2022/07/02 14:39:07;;;;;;;3.60;0.60;;;;;;;;;;5231616;28;20075;-71
2022/07/02 14:41:39;;;;;;;1.38;0.35;;;;;;;;;;5250029;28;20519;-71
2022/07/02 14:44:11;;;;;;;3.30;0.55;;;;;;;;;;5248002;28;20024;-71
2022/07/02 14:46:42;;;;;;;2.90;0.55;;;;;;;;;;5249704;28;20025;-71
2022/07/02 14:49:13;;;;;;;1.27;0.52;;;;;;;;;;5249791;28;20488;-71
2022/07/02 14:51:44;;;;;;;3.40;0.68;;;;;;;;;;5246081;28;20441;-69
2022/07/02 14:54:16;;;;;;;3.38;0.50;;;;;;;;;;5224439;28;20049;-70
2022/07/02 14:56:47;;;;;;;3.38;0.50;;;;;;;;;;5228108;28;20913;-70
2022/07/02 14:59:18;;;;;;;3.08;0.90;;;;;;;;;;5218259;28;20234;-70
2022/07/02 15:01:49;;;;;;;1.40;0.50;;;;;;;;;;5223463;28;20033;-70
2022/07/02 15:04:20;;;;;;;2.64;0.64;;;;;;;;;;5210504;28;20214;-70
2022/07/02 15:06:51;;;;;;;2.28;0.50;;;;;;;;;;5216043;28;20029;-71
2022/07/02 15:09:23;;;;;;;2.80;0.65;;;;;;;;;;5206645;28;20021;-70
2022/07/02 15:11:54;;;;;;;3.33;0.68;;;;;;;;;;5217359;28;20141;-71
2022/07/02 15:17:15;;;;;;;1.80;0.60;;;;;;;;;;5244412;28;20113;-70
2022/07/02 15:19:46;;;;;;;13.57;1.10;;;;;;;;;;5231898;28;20701;-69
2022/07/02 15:22:19;;;;;;;3.72;0.50;;;;;;;;;;5248206;28;20056;-69